VAF967 KMLB-MUVR
Flight info
| Callsign | VAF967 |
|---|---|
| Flight time | 0h 56m |
| Altitude | 34000 |
| Route | TIRCO Q87 GOPEY DCT MCLAW Y442 FUNDI LETOV2 |
| Aircraft | A21N/M-SDE2E3FGHIRWXY/LB1 |
Departure
| Time | 2026-04-25 00:25 |
|---|---|
| Airport | Melbourne Orlando International Airport (KMLB) |
Arrival
| Time | 2026-04-25 01:22 |
|---|---|
| Airport | Juan Gualberto Gomez International Airport (MUVR) |
| Time | Latitude | Longitude | Altitude | Speed | Heading |
|---|---|---|---|---|---|
| 2026-04-24 23:05 | 28.10785 | -80.64740 | 43 ft | 0 kts | 356° |
| 2026-04-25 00:04 | 28.10774 | -80.64738 | 41 ft | 4 kts | 328° |
| 2026-04-25 00:04 | 28.10771 | -80.64728 | 43 ft | 4 kts | 253° |
| 2026-04-25 00:04 | 28.10776 | -80.64703 | 43 ft | 2 kts | 266° |
| 2026-04-25 00:15 | 28.10776 | -80.64704 | 43 ft | 1 kts | 266° |
| 2026-04-25 00:15 | 28.10775 | -80.64712 | 43 ft | 0 kts | 266° |
| 2026-04-25 00:15 | 28.10775 | -80.64717 | 43 ft | 0 kts | 266° |
| 2026-04-25 00:16 | 28.10771 | -80.64739 | 43 ft | 11 kts | 260° |
| 2026-04-25 00:16 | 28.10765 | -80.64830 | 41 ft | 7 kts | 258° |
| 2026-04-25 00:17 | 28.10719 | -80.64854 | 41 ft | 9 kts | 181° |
| 2026-04-25 00:17 | 28.10712 | -80.64853 | 44 ft | 0 kts | 176° |
| 2026-04-25 00:17 | 28.10702 | -80.64853 | 44 ft | 3 kts | 178° |
| 2026-04-25 00:17 | 28.10674 | -80.64852 | 44 ft | 5 kts | 176° |
| 2026-04-25 00:18 | 28.10627 | -80.64848 | 44 ft | 8 kts | 175° |
| 2026-04-25 00:18 | 28.10565 | -80.64841 | 44 ft | 10 kts | 170° |
| 2026-04-25 00:18 | 28.10492 | -80.64824 | 44 ft | 12 kts | 168° |
| 2026-04-25 00:18 | 28.10406 | -80.64806 | 44 ft | 14 kts | 171° |
| 2026-04-25 00:19 | 28.10305 | -80.64787 | 44 ft | 16 kts | 169° |
| 2026-04-25 00:19 | 28.10192 | -80.64764 | 45 ft | 17 kts | 175° |
| 2026-04-25 00:19 | 28.10098 | -80.64757 | 44 ft | 12 kts | 187° |
| 2026-04-25 00:19 | 28.10052 | -80.64832 | 44 ft | 14 kts | 261° |
| 2026-04-25 00:20 | 28.10049 | -80.64945 | 41 ft | 12 kts | 267° |
| 2026-04-25 00:20 | 28.10043 | -80.65046 | 44 ft | 14 kts | 266° |
| 2026-04-25 00:20 | 28.10037 | -80.65163 | 44 ft | 16 kts | 268° |
| 2026-04-25 00:20 | 28.10032 | -80.65294 | 44 ft | 17 kts | 266° |
| 2026-04-25 00:21 | 28.10025 | -80.65437 | 44 ft | 19 kts | 269° |
| 2026-04-25 00:21 | 28.10019 | -80.65591 | 45 ft | 16 kts | 264° |
| 2026-04-25 00:21 | 28.10012 | -80.65721 | 45 ft | 17 kts | 268° |
| 2026-04-25 00:21 | 28.10003 | -80.65866 | 46 ft | 19 kts | 264° |
| 2026-04-25 00:22 | 28.09996 | -80.66002 | 46 ft | 16 kts | 268° |
| 2026-04-25 00:22 | 28.10024 | -80.66089 | 46 ft | 1 kts | 354° |
| 2026-04-25 00:24 | 28.10029 | -80.66090 | 46 ft | 4 kts | 353° |
| 2026-04-25 00:24 | 28.10090 | -80.66100 | 46 ft | 11 kts | 1° |
| 2026-04-25 00:24 | 28.10128 | -80.66062 | 46 ft | 0 kts | 91° |
| 2026-04-25 00:25 | 28.10135 | -80.65925 | 45 ft | 61 kts | 86° |
| 2026-04-25 00:25 | 28.10179 | -80.65082 | 45 ft | 149 kts | 86° |
| 2026-04-25 00:25 | 28.10243 | -80.63750 | 637 ft | 174 kts | 87° |
| 2026-04-25 00:25 | 28.10333 | -80.62350 | 1679 ft | 183 kts | 87° |
| 2026-04-25 00:26 | 28.10420 | -80.60865 | 2604 ft | 193 kts | 87° |
| 2026-04-25 00:26 | 28.10475 | -80.59306 | 3405 ft | 203 kts | 89° |
| 2026-04-25 00:26 | 28.10478 | -80.57669 | 4191 ft | 213 kts | 91° |
| 2026-04-25 00:26 | 28.10489 | -80.55937 | 4902 ft | 231 kts | 88° |
| 2026-04-25 00:27 | 28.10610 | -80.54020 | 5375 ft | 259 kts | 85° |
| 2026-04-25 00:27 | 28.10793 | -80.51911 | 6032 ft | 274 kts | 79° |
| 2026-04-25 00:27 | 28.11585 | -80.49944 | 6918 ft | 281 kts | 48° |
| 2026-04-25 00:27 | 28.13236 | -80.48785 | 7779 ft | 285 kts | 12° |
| 2026-04-25 00:28 | 28.15219 | -80.48798 | 8559 ft | 293 kts | 348° |
| 2026-04-25 00:28 | 28.17205 | -80.49328 | 9561 ft | 290 kts | 345° |
| 2026-04-25 00:28 | 28.19179 | -80.49831 | 10551 ft | 291 kts | 346° |
| 2026-04-25 00:28 | 28.21075 | -80.50634 | 11443 ft | 294 kts | 326° |
| 2026-04-25 00:29 | 28.22475 | -80.52326 | 12148 ft | 305 kts | 298° |
| 2026-04-25 00:29 | 28.23087 | -80.54665 | 12448 ft | 328 kts | 275° |
| 2026-04-25 00:29 | 28.22821 | -80.57286 | 12979 ft | 342 kts | 252° |
| 2026-04-25 00:29 | 28.21667 | -80.59667 | 13755 ft | 350 kts | 231° |
| 2026-04-25 00:30 | 28.19785 | -80.61438 | 14551 ft | 356 kts | 210° |
| 2026-04-25 00:30 | 28.17439 | -80.62377 | 15324 ft | 363 kts | 193° |
| 2026-04-25 00:30 | 28.14935 | -80.62872 | 16105 ft | 367 kts | 191° |
| 2026-04-25 00:30 | 28.12413 | -80.63393 | 16855 ft | 371 kts | 193° |
| 2026-04-25 00:31 | 28.09871 | -80.64003 | 17598 ft | 375 kts | 194° |
| 2026-04-25 00:31 | 28.07315 | -80.64674 | 18310 ft | 379 kts | 195° |
| 2026-04-25 00:31 | 28.04732 | -80.65379 | 18993 ft | 383 kts | 195° |
| 2026-04-25 00:31 | 28.02158 | -80.66090 | 19645 ft | 387 kts | 195° |
| 2026-04-25 00:32 | 27.99522 | -80.66820 | 20284 ft | 392 kts | 195° |
| 2026-04-25 00:32 | 27.96858 | -80.67559 | 20917 ft | 395 kts | 195° |
| 2026-04-25 00:32 | 27.94173 | -80.68305 | 21533 ft | 399 kts | 195° |
| 2026-04-25 00:32 | 27.91463 | -80.69058 | 22141 ft | 403 kts | 195° |
| 2026-04-25 00:33 | 27.88728 | -80.69816 | 22728 ft | 407 kts | 195° |
| 2026-04-25 00:33 | 27.85961 | -80.70584 | 23304 ft | 411 kts | 195° |
| 2026-04-25 00:33 | 27.83171 | -80.71356 | 23855 ft | 414 kts | 195° |
| 2026-04-25 00:33 | 27.80361 | -80.72133 | 24383 ft | 418 kts | 195° |
| 2026-04-25 00:34 | 27.77526 | -80.72916 | 24906 ft | 421 kts | 195° |
| 2026-04-25 00:34 | 27.74668 | -80.73707 | 25421 ft | 424 kts | 195° |
| 2026-04-25 00:34 | 27.71824 | -80.74493 | 25915 ft | 427 kts | 195° |
| 2026-04-25 00:34 | 27.68921 | -80.75293 | 26392 ft | 430 kts | 195° |
| 2026-04-25 00:35 | 27.66001 | -80.76096 | 26850 ft | 433 kts | 195° |
| 2026-04-25 00:35 | 27.63062 | -80.76905 | 27292 ft | 436 kts | 195° |
| 2026-04-25 00:35 | 27.60102 | -80.77720 | 27715 ft | 439 kts | 195° |
| 2026-04-25 00:35 | 27.57125 | -80.78540 | 28126 ft | 442 kts | 195° |
| 2026-04-25 00:36 | 27.54134 | -80.79365 | 28520 ft | 444 kts | 195° |
| 2026-04-25 00:36 | 27.51117 | -80.80197 | 28916 ft | 447 kts | 195° |
| 2026-04-25 00:36 | 27.48088 | -80.81030 | 29289 ft | 449 kts | 195° |
| 2026-04-25 00:36 | 27.45043 | -80.81868 | 29654 ft | 452 kts | 195° |
| 2026-04-25 00:37 | 27.41982 | -80.82710 | 30031 ft | 454 kts | 195° |
| 2026-04-25 00:37 | 27.38911 | -80.83552 | 30497 ft | 453 kts | 195° |
| 2026-04-25 00:37 | 27.35857 | -80.84391 | 30994 ft | 451 kts | 196° |
| 2026-04-25 00:37 | 27.32805 | -80.85216 | 31456 ft | 451 kts | 194° |
| 2026-04-25 00:38 | 27.29699 | -80.85753 | 31891 ft | 452 kts | 188° |
| 2026-04-25 00:38 | 27.26577 | -80.86099 | 32323 ft | 451 kts | 187° |
| 2026-04-25 00:38 | 27.23454 | -80.86428 | 32736 ft | 450 kts | 187° |
| 2026-04-25 00:38 | 27.20341 | -80.86759 | 33110 ft | 449 kts | 188° |
| 2026-04-25 00:39 | 27.17228 | -80.87097 | 33490 ft | 448 kts | 188° |
| 2026-04-25 00:39 | 27.14125 | -80.87435 | 33849 ft | 448 kts | 188° |
| 2026-04-25 00:39 | 27.11059 | -80.87770 | 33973 ft | 448 kts | 188° |
| 2026-04-25 00:39 | 27.07959 | -80.88108 | 33984 ft | 447 kts | 188° |
| 2026-04-25 00:40 | 27.01772 | -80.88786 | 33968 ft | 447 kts | 188° |
| 2026-04-25 00:40 | 26.95574 | -80.89465 | 33960 ft | 447 kts | 188° |
| 2026-04-25 00:41 | 26.89372 | -80.90141 | 33956 ft | 447 kts | 188° |
| 2026-04-25 00:41 | 26.83183 | -80.90816 | 33962 ft | 447 kts | 188° |
| 2026-04-25 00:42 | 26.78029 | -80.91374 | 33960 ft | 447 kts | 188° |
| 2026-04-25 00:42 | 26.71832 | -80.92051 | 33962 ft | 448 kts | 188° |
| 2026-04-25 00:43 | 26.65633 | -80.92725 | 33958 ft | 448 kts | 188° |
| 2026-04-25 00:43 | 26.59430 | -80.93401 | 33958 ft | 448 kts | 188° |
| 2026-04-25 00:44 | 26.53224 | -80.94074 | 33949 ft | 448 kts | 188° |
| 2026-04-25 00:44 | 26.47003 | -80.94747 | 33952 ft | 448 kts | 188° |
| 2026-04-25 00:45 | 26.40795 | -80.95419 | 33950 ft | 448 kts | 188° |
| 2026-04-25 00:45 | 26.34576 | -80.96095 | 33960 ft | 449 kts | 188° |
| 2026-04-25 00:46 | 26.28394 | -80.96767 | 33963 ft | 449 kts | 188° |
| 2026-04-25 00:47 | 26.19025 | -80.97779 | 33959 ft | 449 kts | 188° |
| 2026-04-25 00:47 | 26.12839 | -80.98448 | 33965 ft | 449 kts | 188° |
| 2026-04-25 00:48 | 26.06618 | -80.99120 | 33961 ft | 449 kts | 188° |
| 2026-04-25 00:48 | 26.00392 | -80.99790 | 33959 ft | 449 kts | 188° |
| 2026-04-25 00:49 | 25.94161 | -81.00461 | 33961 ft | 451 kts | 188° |
| 2026-04-25 00:49 | 25.87918 | -81.01134 | 33965 ft | 451 kts | 188° |
| 2026-04-25 00:50 | 25.81673 | -81.01806 | 33966 ft | 450 kts | 188° |
| 2026-04-25 00:50 | 25.75432 | -81.02477 | 33964 ft | 451 kts | 189° |
| 2026-04-25 00:51 | 25.69186 | -81.03144 | 33961 ft | 451 kts | 189° |
| 2026-04-25 00:51 | 25.62975 | -81.03811 | 33964 ft | 450 kts | 189° |
| 2026-04-25 00:52 | 25.56727 | -81.04482 | 33959 ft | 450 kts | 189° |
| 2026-04-25 00:52 | 25.50483 | -81.05149 | 33960 ft | 450 kts | 188° |
| 2026-04-25 00:53 | 25.44244 | -81.05816 | 33958 ft | 451 kts | 189° |
| 2026-04-25 00:53 | 25.37995 | -81.06483 | 33957 ft | 451 kts | 189° |
| 2026-04-25 00:54 | 25.31792 | -81.07144 | 33947 ft | 450 kts | 189° |
| 2026-04-25 00:54 | 25.25551 | -81.07808 | 33952 ft | 450 kts | 189° |
| 2026-04-25 00:55 | 25.19312 | -81.08472 | 33945 ft | 450 kts | 189° |
| 2026-04-25 00:55 | 25.13026 | -81.08528 | 33943 ft | 455 kts | 177° |
| 2026-04-25 00:56 | 25.06724 | -81.07764 | 33937 ft | 456 kts | 176° |
| 2026-04-25 00:56 | 25.00462 | -81.06978 | 33641 ft | 452 kts | 176° |
| 2026-04-25 00:56 | 24.97337 | -81.06599 | 33263 ft | 450 kts | 177° |
| 2026-04-25 00:57 | 24.94241 | -81.06227 | 32787 ft | 446 kts | 177° |
| 2026-04-25 00:57 | 24.91169 | -81.05860 | 32297 ft | 443 kts | 177° |
| 2026-04-25 00:57 | 24.88114 | -81.05499 | 31778 ft | 441 kts | 177° |
| 2026-04-25 00:57 | 24.85068 | -81.05139 | 31254 ft | 439 kts | 177° |
| 2026-04-25 00:58 | 24.82041 | -81.04778 | 30754 ft | 436 kts | 176° |
| 2026-04-25 00:58 | 24.79034 | -81.04419 | 30254 ft | 433 kts | 176° |
| 2026-04-25 00:58 | 24.76048 | -81.04061 | 29755 ft | 431 kts | 176° |
| 2026-04-25 00:58 | 24.73071 | -81.03705 | 29234 ft | 429 kts | 176° |
| 2026-04-25 00:59 | 24.70115 | -81.03350 | 28724 ft | 426 kts | 176° |
| 2026-04-25 00:59 | 24.67175 | -81.02998 | 28217 ft | 424 kts | 176° |
| 2026-04-25 00:59 | 24.64247 | -81.02648 | 27728 ft | 421 kts | 176° |
| 2026-04-25 00:59 | 24.61346 | -81.02303 | 27260 ft | 419 kts | 176° |
| 2026-04-25 01:00 | 24.58475 | -81.01961 | 26754 ft | 416 kts | 176° |
| 2026-04-25 01:00 | 24.55642 | -81.01705 | 26256 ft | 413 kts | 181° |
| 2026-04-25 01:00 | 24.52822 | -81.01653 | 25771 ft | 410 kts | 182° |
| 2026-04-25 01:00 | 24.50352 | -81.01632 | 25342 ft | 407 kts | 182° |
| 2026-04-25 01:01 | 24.47715 | -81.01614 | 24890 ft | 404 kts | 182° |
| 2026-04-25 01:01 | 24.44909 | -81.01591 | 24394 ft | 402 kts | 182° |
| 2026-04-25 01:01 | 24.42118 | -81.01568 | 23886 ft | 400 kts | 182° |
| 2026-04-25 01:01 | 24.39339 | -81.01545 | 23377 ft | 398 kts | 181° |
| 2026-04-25 01:02 | 24.36578 | -81.01520 | 22891 ft | 395 kts | 181° |
| 2026-04-25 01:02 | 24.33832 | -81.01496 | 22419 ft | 393 kts | 181° |
| 2026-04-25 01:02 | 24.31105 | -81.01475 | 21906 ft | 391 kts | 181° |
| 2026-04-25 01:02 | 24.28383 | -81.01453 | 21382 ft | 390 kts | 181° |
| 2026-04-25 01:03 | 24.25678 | -81.01431 | 20877 ft | 388 kts | 181° |
| 2026-04-25 01:03 | 24.22997 | -81.01407 | 20378 ft | 383 kts | 181° |
| 2026-04-25 01:03 | 24.20343 | -81.01385 | 19904 ft | 378 kts | 181° |
| 2026-04-25 01:03 | 24.17732 | -81.01362 | 19448 ft | 373 kts | 181° |
| 2026-04-25 01:04 | 24.15159 | -81.01340 | 19011 ft | 367 kts | 181° |
| 2026-04-25 01:04 | 24.12622 | -81.01318 | 18585 ft | 362 kts | 181° |
| 2026-04-25 01:04 | 24.10119 | -81.01297 | 18167 ft | 357 kts | 181° |
| 2026-04-25 01:04 | 24.07650 | -81.01277 | 17752 ft | 352 kts | 181° |
| 2026-04-25 01:05 | 24.05218 | -81.01256 | 17352 ft | 347 kts | 181° |
| 2026-04-25 01:05 | 24.02840 | -81.01237 | 16958 ft | 346 kts | 181° |
| 2026-04-25 01:05 | 24.00436 | -81.01247 | 16563 ft | 346 kts | 184° |
| 2026-04-25 01:05 | 23.98075 | -81.01658 | 16150 ft | 343 kts | 196° |
| 2026-04-25 01:06 | 23.95770 | -81.02352 | 15754 ft | 343 kts | 198° |
| 2026-04-25 01:06 | 23.93477 | -81.03066 | 15373 ft | 342 kts | 197° |
| 2026-04-25 01:06 | 23.91186 | -81.03760 | 14999 ft | 341 kts | 197° |
| 2026-04-25 01:06 | 23.88901 | -81.04437 | 14603 ft | 340 kts | 197° |
| 2026-04-25 01:07 | 23.86608 | -81.05111 | 14191 ft | 341 kts | 196° |
| 2026-04-25 01:07 | 23.84312 | -81.05778 | 13784 ft | 341 kts | 196° |
| 2026-04-25 01:07 | 23.82022 | -81.06442 | 13399 ft | 340 kts | 196° |
| 2026-04-25 01:07 | 23.79742 | -81.07104 | 13019 ft | 339 kts | 196° |
| 2026-04-25 01:08 | 23.77465 | -81.07763 | 12643 ft | 338 kts | 196° |
| 2026-04-25 01:08 | 23.75198 | -81.08419 | 12246 ft | 336 kts | 196° |
| 2026-04-25 01:08 | 23.72958 | -81.09069 | 11851 ft | 330 kts | 196° |
| 2026-04-25 01:08 | 23.70752 | -81.09708 | 11453 ft | 325 kts | 196° |
| 2026-04-25 01:09 | 23.68580 | -81.10336 | 11084 ft | 320 kts | 196° |
| 2026-04-25 01:09 | 23.66440 | -81.10954 | 10716 ft | 316 kts | 196° |
| 2026-04-25 01:09 | 23.64361 | -81.11555 | 10418 ft | 309 kts | 196° |
| 2026-04-25 01:09 | 23.62309 | -81.12149 | 10197 ft | 300 kts | 196° |
| 2026-04-25 01:10 | 23.60323 | -81.12724 | 9985 ft | 293 kts | 196° |
| 2026-04-25 01:10 | 23.58355 | -81.13293 | 9681 ft | 292 kts | 196° |
| 2026-04-25 01:10 | 23.56387 | -81.13864 | 9336 ft | 293 kts | 196° |
| 2026-04-25 01:10 | 23.54415 | -81.14434 | 8979 ft | 294 kts | 195° |
| 2026-04-25 01:11 | 23.52583 | -81.14963 | 8647 ft | 293 kts | 195° |
| 2026-04-25 01:11 | 23.50690 | -81.15508 | 8305 ft | 289 kts | 195° |
| 2026-04-25 01:11 | 23.48755 | -81.16069 | 7974 ft | 286 kts | 195° |
| 2026-04-25 01:11 | 23.46830 | -81.16625 | 7622 ft | 285 kts | 195° |
| 2026-04-25 01:12 | 23.44902 | -81.17179 | 7132 ft | 287 kts | 195° |
| 2026-04-25 01:12 | 23.42983 | -81.17733 | 6734 ft | 282 kts | 195° |
| 2026-04-25 01:12 | 23.41101 | -81.18274 | 6393 ft | 279 kts | 195° |
| 2026-04-25 01:12 | 23.39229 | -81.18812 | 6042 ft | 279 kts | 195° |
| 2026-04-25 01:13 | 23.37346 | -81.19352 | 5703 ft | 280 kts | 195° |
| 2026-04-25 01:13 | 23.35468 | -81.19889 | 5377 ft | 277 kts | 195° |
| 2026-04-25 01:13 | 23.33618 | -81.20423 | 5076 ft | 274 kts | 197° |
| 2026-04-25 01:13 | 23.31923 | -81.21272 | 4768 ft | 272 kts | 218° |
| 2026-04-25 01:14 | 23.30575 | -81.22707 | 4466 ft | 271 kts | 229° |
| 2026-04-25 01:14 | 23.29335 | -81.24251 | 4154 ft | 271 kts | 229° |
| 2026-04-25 01:14 | 23.28091 | -81.25793 | 3836 ft | 271 kts | 229° |
| 2026-04-25 01:14 | 23.26842 | -81.27325 | 3521 ft | 271 kts | 228° |
| 2026-04-25 01:15 | 23.25591 | -81.28848 | 3205 ft | 270 kts | 228° |
| 2026-04-25 01:15 | 23.24294 | -81.30310 | 2970 ft | 264 kts | 219° |
| 2026-04-25 01:15 | 23.22725 | -81.31205 | 2932 ft | 248 kts | 195° |
| 2026-04-25 01:15 | 23.21084 | -81.31316 | 2897 ft | 231 kts | 167° |
| 2026-04-25 01:16 | 23.19644 | -81.30621 | 2667 ft | 226 kts | 146° |
| 2026-04-25 01:16 | 23.18365 | -81.29655 | 2367 ft | 224 kts | 144° |
| 2026-04-25 01:16 | 23.17096 | -81.28680 | 2068 ft | 221 kts | 144° |
| 2026-04-25 01:16 | 23.15815 | -81.27829 | 1942 ft | 209 kts | 158° |
| 2026-04-25 01:17 | 23.14451 | -81.27533 | 1937 ft | 190 kts | 185° |
| 2026-04-25 01:17 | 23.13660 | -81.27787 | 1971 ft | 171 kts | 208° |
| 2026-04-25 01:17 | 23.12631 | -81.28947 | 2000 ft | 159 kts | 237° |
| 2026-04-25 01:17 | 23.12056 | -81.29903 | 1990 ft | 143 kts | 235° |
| 2026-04-25 01:18 | 23.11504 | -81.30784 | 1988 ft | 141 kts | 235° |
| 2026-04-25 01:18 | 23.10953 | -81.31664 | 1987 ft | 140 kts | 235° |
| 2026-04-25 01:18 | 23.10394 | -81.32533 | 1989 ft | 140 kts | 234° |
| 2026-04-25 01:18 | 23.09851 | -81.33403 | 1988 ft | 141 kts | 235° |
| 2026-04-25 01:19 | 23.09299 | -81.34275 | 1924 ft | 140 kts | 236° |
| 2026-04-25 01:19 | 23.08743 | -81.35142 | 1729 ft | 140 kts | 234° |
| 2026-04-25 01:19 | 23.08187 | -81.36004 | 1522 ft | 139 kts | 234° |
| 2026-04-25 01:19 | 23.07647 | -81.36872 | 1341 ft | 139 kts | 234° |
| 2026-04-25 01:20 | 23.07101 | -81.37734 | 1161 ft | 138 kts | 234° |
| 2026-04-25 01:20 | 23.06556 | -81.38593 | 990 ft | 138 kts | 234° |
| 2026-04-25 01:20 | 23.06016 | -81.39451 | 816 ft | 137 kts | 235° |
| 2026-04-25 01:20 | 23.05475 | -81.40303 | 655 ft | 137 kts | 236° |
| 2026-04-25 01:21 | 23.04941 | -81.41155 | 477 ft | 136 kts | 234° |
| 2026-04-25 01:21 | 23.04414 | -81.42004 | 312 ft | 136 kts | 235° |
| 2026-04-25 01:21 | 23.03881 | -81.42839 | 233 ft | 128 kts | 234° |
| 2026-04-25 01:21 | 23.03462 | -81.43491 | 213 ft | 67 kts | 250° |
| 2026-04-25 01:22 | 23.03343 | -81.43701 | 213 ft | 18 kts | 237° |
| 2026-04-25 01:22 | 23.03273 | -81.43818 | 217 ft | 19 kts | 235° |
| 2026-04-25 01:22 | 23.03190 | -81.43941 | 211 ft | 21 kts | 233° |
| 2026-04-25 01:22 | 23.03103 | -81.44077 | 211 ft | 23 kts | 237° |
| 2026-04-25 01:23 | 23.03012 | -81.44223 | 213 ft | 25 kts | 234° |
| 2026-04-25 01:23 | 23.02914 | -81.44383 | 213 ft | 26 kts | 238° |
| 2026-04-25 01:23 | 23.02804 | -81.44548 | 212 ft | 28 kts | 234° |
| 2026-04-25 01:23 | 23.02693 | -81.44723 | 212 ft | 29 kts | 235° |
| 2026-04-25 01:24 | 23.02595 | -81.44884 | 211 ft | 20 kts | 253° |
| 2026-04-25 01:24 | 23.02649 | -81.44992 | 212 ft | 16 kts | 335° |
| 2026-04-25 01:24 | 23.02748 | -81.44950 | 212 ft | 18 kts | 52° |
| 2026-04-25 01:24 | 23.02828 | -81.44836 | 217 ft | 20 kts | 56° |
| 2026-04-25 01:25 | 23.02909 | -81.44706 | 213 ft | 22 kts | 56° |
| 2026-04-25 01:25 | 23.02998 | -81.44568 | 221 ft | 22 kts | 55° |
| 2026-04-25 01:25 | 23.03086 | -81.44426 | 213 ft | 23 kts | 55° |
| 2026-04-25 01:25 | 23.03182 | -81.44277 | 213 ft | 25 kts | 56° |
| 2026-04-25 01:26 | 23.03282 | -81.44118 | 213 ft | 26 kts | 54° |
| 2026-04-25 01:26 | 23.03366 | -81.43990 | 213 ft | 17 kts | 55° |
| 2026-04-25 01:26 | 23.03426 | -81.43894 | 217 ft | 16 kts | 57° |
| 2026-04-25 01:26 | 23.03486 | -81.43795 | 213 ft | 16 kts | 56° |
| 2026-04-25 01:27 | 23.03554 | -81.43686 | 216 ft | 18 kts | 55° |
| 2026-04-25 01:27 | 23.03643 | -81.43621 | 215 ft | 14 kts | 355° |
| 2026-04-25 01:27 | 23.03707 | -81.43597 | 223 ft | 10 kts | 35° |
| 2026-04-25 01:28 | 23.03810 | -81.43631 | 213 ft | 6 kts | 326° |
| 2026-04-25 01:28 | 23.03813 | -81.43633 | 213 ft | 0 kts | 324° |